sensor_id;sensor_type;location;lat;lon;timestamp;pressure;altitude;pressure_sealevel;temperature;humidity
56928;BME280;60850;52.502;13.426;2022-08-01T00:02:17;100751.72;;;21.75;100.00
56928;BME280;60850;52.502;13.426;2022-08-01T00:04:44;100750.75;;;21.76;100.00
56928;BME280;60850;52.502;13.426;2022-08-01T00:07:11;100742.53;;;21.78;100.00
56928;BME280;60850;52.502;13.426;2022-08-01T00:09:39;100748.41;;;21.72;100.00
56928;BME280;60850;52.502;13.426;2022-08-01T00:12:06;100745.75;;;21.70;100.00
56928;BME280;60850;52.502;13.426;2022-08-01T00:14:33;100757.59;;;21.69;100.00
56928;BME280;60850;52.502;13.426;2022-08-01T00:16:59;100760.66;;;21.64;100.00
56928;BME280;60850;52.502;13.426;2022-08-01T00:19:26;100762.84;;;21.59;100.00
56928;BME280;60850;52.502;13.426;2022-08-01T00:21:53;100765.13;;;21.53;100.00
56928;BME280;60850;52.502;13.426;2022-08-01T00:24:20;100758.09;;;21.50;100.00
56928;BME280;60850;52.502;13.426;2022-08-01T00:26:48;100758.28;;;21.47;100.00
56928;BME280;60850;52.502;13.426;2022-08-01T00:29:15;100750.69;;;21.39;100.00
56928;BME280;60850;52.502;13.426;2022-08-01T00:31:42;100749.19;;;21.35;100.00
56928;BME280;60850;52.502;13.426;2022-08-01T00:34:08;100755.56;;;21.34;100.00
56928;BME280;60850;52.502;13.426;2022-08-01T00:36:35;100748.41;;;21.33;100.00
56928;BME280;60850;52.502;13.426;2022-08-01T00:39:02;100751.25;;;21.32;100.00
56928;BME280;60850;52.502;13.426;2022-08-01T00:41:29;100754.94;;;21.31;100.00
56928;BME280;60850;52.502;13.426;2022-08-01T00:43:57;100755.81;;;21.31;100.00
56928;BME280;60850;52.502;13.426;2022-08-01T00:46:24;100767.28;;;21.35;100.00
56928;BME280;60850;52.502;13.426;2022-08-01T00:48:50;100758.28;;;21.34;100.00
56928;BME280;60850;52.502;13.426;2022-08-01T00:51:18;100749.41;;;21.32;100.00
56928;BME280;60850;52.502;13.426;2022-08-01T00:53:45;100750.38;;;21.31;100.00
56928;BME280;60850;52.502;13.426;2022-08-01T00:56:13;100762.38;;;21.27;100.00
56928;BME280;60850;52.502;13.426;2022-08-01T00:58:40;100752.63;;;21.25;100.00
56928;BME280;60850;52.502;13.426;2022-08-01T01:01:08;100745.59;;;21.22;100.00
56928;BME280;60850;52.502;13.426;2022-08-01T01:03:35;100748.94;;;21.13;100.00
56928;BME280;60850;52.502;13.426;2022-08-01T01:06:13;100742.13;;;21.07;100.00
56928;BME280;60850;52.502;13.426;2022-08-01T01:08:44;100736.69;;;21.07;100.00
56928;BME280;60850;52.502;13.426;2022-08-01T01:11:19;100737.75;;;21.05;100.00
56928;BME280;60850;52.502;13.426;2022-08-01T01:13:51;100739.50;;;21.06;100.00
56928;BME280;60850;52.502;13.426;2022-08-01T01:16:21;100745.91;;;21.05;100.00
56928;BME280;60850;52.502;13.426;2022-08-01T01:18:51;100741.34;;;21.05;100.00
56928;BME280;60850;52.502;13.426;2022-08-01T01:21:42;100738.75;;;21.04;100.00
56928;BME280;60850;52.502;13.426;2022-08-01T01:24:21;100738.00;;;21.02;100.00
56928;BME280;60850;52.502;13.426;2022-08-01T01:26:59;100740.59;;;21.03;100.00
56928;BME280;60850;52.502;13.426;2022-08-01T01:29:32;100739.59;;;21.04;100.00
56928;BME280;60850;52.502;13.426;2022-08-01T01:32:05;100744.03;;;21.05;100.00
56928;BME280;60850;52.502;13.426;2022-08-01T01:34:36;100742.19;;;21.06;100.00
56928;BME280;60850;52.502;13.426;2022-08-01T01:37:24;100741.13;;;21.08;100.00
56928;BME280;60850;52.502;13.426;2022-08-01T01:39:53;100736.78;;;21.06;100.00
56928;BME280;60850;52.502;13.426;2022-08-01T01:42:21;100731.38;;;21.06;100.00
56928;BME280;60850;52.502;13.426;2022-08-01T01:44:54;100727.16;;;21.02;100.00
56928;BME280;60850;52.502;13.426;2022-08-01T01:47:22;100723.66;;;21.00;100.00
56928;BME280;60850;52.502;13.426;2022-08-01T01:49:50;100729.06;;;21.00;100.00
56928;BME280;60850;52.502;13.426;2022-08-01T01:52:19;100727.34;;;20.99;100.00
56928;BME280;60850;52.502;13.426;2022-08-01T01:54:49;100726.47;;;20.98;100.00
56928;BME280;60850;52.502;13.426;2022-08-01T01:57:18;100732.00;;;20.97;100.00
56928;BME280;60850;52.502;13.426;2022-08-01T01:59:47;100731.25;;;20.95;100.00
56928;BME280;60850;52.502;13.426;2022-08-01T02:02:18;100733.09;;;20.94;100.00
56928;BME280;60850;52.502;13.426;2022-08-01T02:04:46;100734.41;;;20.89;100.00
56928;BME280;60850;52.502;13.426;2022-08-01T02:07:17;100731.34;;;20.80;100.00
56928;BME280;60850;52.502;13.426;2022-08-01T02:09:46;100730.13;;;20.72;100.00
56928;BME280;60850;52.502;13.426;2022-08-01T02:12:16;100735.13;;;20.65;100.00
56928;BME280;60850;52.502;13.426;2022-08-01T02:14:48;100734.56;;;20.60;100.00
56928;BME280;60850;52.502;13.426;2022-08-01T02:17:19;100744.84;;;20.55;100.00
56928;BME280;60850;52.502;13.426;2022-08-01T02:19:46;100739.06;;;20.47;100.00
56928;BME280;60850;52.502;13.426;2022-08-01T02:22:18;100739.56;;;20.39;100.00
56928;BME280;60850;52.502;13.426;2022-08-01T02:24:50;100744.72;;;20.29;100.00
56928;BME280;60850;52.502;13.426;2022-08-01T02:27:24;100738.94;;;20.21;100.00
56928;BME280;60850;52.502;13.426;2022-08-01T02:29:53;100737.72;;;20.13;100.00
56928;BME280;60850;52.502;13.426;2022-08-01T02:32:31;100738.00;;;20.08;100.00
56928;BME280;60850;52.502;13.426;2022-08-01T02:34:59;100740.28;;;20.01;100.00
56928;BME280;60850;52.502;13.426;2022-08-01T02:37:29;100732.66;;;19.94;100.00
56928;BME280;60850;52.502;13.426;2022-08-01T02:39:59;100739.34;;;19.88;100.00
56928;BME280;60850;52.502;13.426;2022-08-01T02:42:27;100741.47;;;19.83;100.00
56928;BME280;60850;52.502;13.426;2022-08-01T02:44:56;100748.16;;;19.78;100.00
56928;BME280;60850;52.502;13.426;2022-08-01T02:47:26;100744.47;;;19.79;100.00
56928;BME280;60850;52.502;13.426;2022-08-01T02:49:54;100734.22;;;19.84;100.00
56928;BME280;60850;52.502;13.426;2022-08-01T02:52:23;100736.44;;;19.91;100.00
56928;BME280;60850;52.502;13.426;2022-08-01T02:54:53;100734.09;;;19.99;100.00
56928;BME280;60850;52.502;13.426;2022-08-01T02:57:23;100732.59;;;20.08;100.00
56928;BME280;60850;52.502;13.426;2022-08-01T02:59:52;100739.34;;;20.15;100.00
56928;BME280;60850;52.502;13.426;2022-08-01T03:02:22;100738.06;;;20.21;100.00
56928;BME280;60850;52.502;13.426;2022-08-01T03:04:52;100744.94;;;20.26;100.00
56928;BME280;60850;52.502;13.426;2022-08-01T03:07:20;100736.81;;;20.26;100.00
56928;BME280;60850;52.502;13.426;2022-08-01T03:09:49;100734.09;;;20.26;100.00
56928;BME280;60850;52.502;13.426;2022-08-01T03:12:19;100749.47;;;20.26;100.00
56928;BME280;60850;52.502;13.426;2022-08-01T03:14:51;100744.16;;;20.24;100.00
56928;BME280;60850;52.502;13.426;2022-08-01T03:17:21;100745.34;;;20.20;100.00
56928;BME280;60850;52.502;13.426;2022-08-01T03:19:49;100746.59;;;20.15;100.00
56928;BME280;60850;52.502;13.426;2022-08-01T03:22:21;100738.22;;;20.05;100.00
56928;BME280;60850;52.502;13.426;2022-08-01T03:24:51;100747.44;;;20.02;100.00
56928;BME280;60850;52.502;13.426;2022-08-01T03:27:20;100750.44;;;19.98;100.00
56928;BME280;60850;52.502;13.426;2022-08-01T03:29:48;100747.16;;;19.93;100.00
56928;BME280;60850;52.502;13.426;2022-08-01T03:32:16;100754.13;;;19.97;100.00
56928;BME280;60850;52.502;13.426;2022-08-01T03:34:45;100747.63;;;19.99;100.00
56928;BME280;60850;52.502;13.426;2022-08-01T03:37:15;100753.72;;;20.03;100.00
56928;BME280;60850;52.502;13.426;2022-08-01T03:39:48;100758.72;;;20.09;100.00
56928;BME280;60850;52.502;13.426;2022-08-01T03:42:18;100763.81;;;20.14;100.00
56928;BME280;60850;52.502;13.426;2022-08-01T03:44:51;100757.91;;;20.21;100.00
56928;BME280;60850;52.502;13.426;2022-08-01T03:47:22;100762.78;;;20.29;100.00
56928;BME280;60850;52.502;13.426;2022-08-01T03:49:51;100769.13;;;20.42;100.00
56928;BME280;60850;52.502;13.426;2022-08-01T03:52:19;100765.28;;;20.46;100.00
56928;BME280;60850;52.502;13.426;2022-08-01T03:54:49;100768.66;;;20.50;100.00
56928;BME280;60850;52.502;13.426;2022-08-01T03:57:19;100765.00;;;20.51;100.00
56928;BME280;60850;52.502;13.426;2022-08-01T03:59:46;100766.63;;;20.53;100.00
56928;BME280;60850;52.502;13.426;2022-08-01T04:02:14;100769.97;;;20.57;100.00
56928;BME280;60850;52.502;13.426;2022-08-01T04:04:42;100765.97;;;20.63;100.00
56928;BME280;60850;52.502;13.426;2022-08-01T04:07:21;100762.97;;;20.67;100.00
56928;BME280;60850;52.502;13.426;2022-08-01T04:09:50;100764.72;;;20.68;100.00
56928;BME280;60850;52.502;13.426;2022-08-01T04:12:17;100768.16;;;20.70;100.00
56928;BME280;60850;52.502;13.426;2022-08-01T04:14:45;100767.19;;;20.71;100.00
56928;BME280;60850;52.502;13.426;2022-08-01T04:17:13;100762.63;;;20.72;100.00
56928;BME280;60850;52.502;13.426;2022-08-01T04:19:40;100767.88;;;20.75;100.00
56928;BME280;60850;52.502;13.426;2022-08-01T04:22:08;100771.44;;;20.75;100.00
56928;BME280;60850;52.502;13.426;2022-08-01T04:24:36;100768.72;;;20.75;100.00
56928;BME280;60850;52.502;13.426;2022-08-01T04:27:10;100763.88;;;20.80;100.00
56928;BME280;60850;52.502;13.426;2022-08-01T04:29:39;100761.91;;;20.82;100.00
56928;BME280;60850;52.502;13.426;2022-08-01T04:32:08;100768.75;;;20.88;100.00
56928;BME280;60850;52.502;13.426;2022-08-01T04:34:39;100769.63;;;20.89;100.00
56928;BME280;60850;52.502;13.426;2022-08-01T04:37:09;100775.50;;;20.95;100.00
56928;BME280;60850;52.502;13.426;2022-08-01T04:39:37;100772.25;;;21.03;100.00
56928;BME280;60850;52.502;13.426;2022-08-01T04:42:10;100778.56;;;21.16;100.00
56928;BME280;60850;52.502;13.426;2022-08-01T04:44:37;100783.75;;;21.19;100.00
56928;BME280;60850;52.502;13.426;2022-08-01T04:47:05;100783.75;;;21.19;100.00
56928;BME280;60850;52.502;13.426;2022-08-01T04:49:33;100782.03;;;21.18;100.00
56928;BME280;60850;52.502;13.426;2022-08-01T04:52:01;100789.41;;;21.16;100.00
56928;BME280;60850;52.502;13.426;2022-08-01T04:54:29;100783.13;;;21.16;100.00
56928;BME280;60850;52.502;13.426;2022-08-01T04:56:59;100786.56;;;21.18;100.00
56928;BME280;60850;52.502;13.426;2022-08-01T04:59:28;100788.63;;;21.14;100.00
56928;BME280;60850;52.502;13.426;2022-08-01T05:02:08;100792.41;;;21.11;100.00
56928;BME280;60850;52.502;13.426;2022-08-01T05:04:36;100796.97;;;21.11;100.00
56928;BME280;60850;52.502;13.426;2022-08-01T05:07:04;100796.22;;;21.09;100.00
56928;BME280;60850;52.502;13.426;2022-08-01T05:09:31;100802.19;;;21.01;100.00
56928;BME280;60850;52.502;13.426;2022-08-01T05:11:58;100798.16;;;20.94;100.00
56928;BME280;60850;52.502;13.426;2022-08-01T05:14:28;100790.09;;;20.93;100.00
56928;BME280;60850;52.502;13.426;2022-08-01T05:16:57;100799.88;;;20.95;100.00
56928;BME280;60850;52.502;13.426;2022-08-01T05:19:24;100804.09;;;20.99;100.00
56928;BME280;60850;52.502;13.426;2022-08-01T05:21:52;100800.34;;;21.02;100.00
56928;BME280;60850;52.502;13.426;2022-08-01T05:24:19;100797.50;;;21.03;100.00
56928;BME280;60850;52.502;13.426;2022-08-01T05:26:48;100799.34;;;21.03;100.00
56928;BME280;60850;52.502;13.426;2022-08-01T05:29:15;100802.19;;;21.01;100.00
56928;BME280;60850;52.502;13.426;2022-08-01T05:31:43;100802.06;;;21.03;100.00
56928;BME280;60850;52.502;13.426;2022-08-01T05:34:10;100795.78;;;21.02;100.00
56928;BME280;60850;52.502;13.426;2022-08-01T05:36:37;100797.19;;;21.08;100.00
56928;BME280;60850;52.502;13.426;2022-08-01T05:39:04;59410.25;;;-144.60;100.00
56928;BME280;60850;52.502;13.426;2022-08-01T05:41:31;59410.25;;;-144.60;100.00
56928;BME280;60850;52.502;13.426;2022-08-01T05:43:58;59410.25;;;-144.60;100.00
56928;BME280;60850;52.502;13.426;2022-08-01T05:46:25;59410.25;;;-144.60;100.00
56928;BME280;60850;52.502;13.426;2022-08-01T05:48:54;59410.25;;;-144.60;100.00
56928;BME280;60850;52.502;13.426;2022-08-01T05:51:21;59410.25;;;-144.60;100.00
56928;BME280;60850;52.502;13.426;2022-08-01T05:53:47;59410.25;;;-144.60;100.00
56928;BME280;60850;52.502;13.426;2022-08-01T05:56:14;59410.25;;;-144.60;100.00
56928;BME280;60850;52.502;13.426;2022-08-01T05:58:41;59410.25;;;-144.60;100.00
56928;BME280;60850;52.502;13.426;2022-08-01T06:01:08;59410.25;;;-144.60;100.00
56928;BME280;60850;52.502;13.426;2022-08-01T06:03:35;59410.25;;;-144.60;100.00
56928;BME280;60850;52.502;13.426;2022-08-01T06:06:04;59410.25;;;-144.60;100.00
56928;BME280;60850;52.502;13.426;2022-08-01T06:08:31;59410.25;;;-144.60;100.00
56928;BME280;60850;52.502;13.426;2022-08-01T06:10:58;59410.25;;;-144.60;100.00
56928;BME280;60850;52.502;13.426;2022-08-01T06:13:25;59410.25;;;-144.60;100.00
56928;BME280;60850;52.502;13.426;2022-08-01T06:15:52;59410.25;;;-144.60;100.00
56928;BME280;60850;52.502;13.426;2022-08-01T06:18:19;59410.25;;;-144.60;100.00
56928;BME280;60850;52.502;13.426;2022-08-01T06:20:46;59410.25;;;-144.60;100.00
56928;BME280;60850;52.502;13.426;2022-08-01T06:23:15;59410.25;;;-144.60;100.00
56928;BME280;60850;52.502;13.426;2022-08-01T06:25:42;59410.25;;;-144.60;100.00
56928;BME280;60850;52.502;13.426;2022-08-01T06:28:09;59410.25;;;-144.60;100.00
56928;BME280;60850;52.502;13.426;2022-08-01T06:30:36;59410.25;;;-144.60;100.00
56928;BME280;60850;52.502;13.426;2022-08-01T06:33:03;59410.25;;;-144.60;100.00
56928;BME280;60850;52.502;13.426;2022-08-01T06:35:30;59410.25;;;-144.60;100.00
56928;BME280;60850;52.502;13.426;2022-08-01T06:37:57;59410.25;;;-144.60;100.00
56928;BME280;60850;52.502;13.426;2022-08-01T06:40:26;59410.25;;;-144.60;100.00
56928;BME280;60850;52.502;13.426;2022-08-01T06:42:53;59410.25;;;-144.60;100.00
56928;BME280;60850;52.502;13.426;2022-08-01T06:45:20;59410.25;;;-144.60;100.00
56928;BME280;60850;52.502;13.426;2022-08-01T06:47:48;59410.25;;;-144.60;100.00
56928;BME280;60850;52.502;13.426;2022-08-01T06:50:15;59410.25;;;-144.60;100.00
56928;BME280;60850;52.502;13.426;2022-08-01T06:52:42;59410.25;;;-144.60;100.00
56928;BME280;60850;52.502;13.426;2022-08-01T06:55:09;59410.25;;;-144.60;100.00
56928;BME280;60850;52.502;13.426;2022-08-01T06:57:45;59410.25;;;-144.60;100.00
56928;BME280;60850;52.502;13.426;2022-08-01T07:00:13;59410.25;;;-144.60;100.00
56928;BME280;60850;52.502;13.426;2022-08-01T07:02:42;59410.25;;;-144.60;100.00
56928;BME280;60850;52.502;13.426;2022-08-01T07:05:08;59410.25;;;-144.60;100.00
56928;BME280;60850;52.502;13.426;2022-08-01T07:07:36;59410.25;;;-144.60;100.00
56928;BME280;60850;52.502;13.426;2022-08-01T07:10:03;59410.25;;;-144.60;100.00
56928;BME280;60850;52.502;13.426;2022-08-01T07:12:30;59410.25;;;-144.60;100.00
56928;BME280;60850;52.502;13.426;2022-08-01T07:14:59;59410.25;;;-144.60;100.00
56928;BME280;60850;52.502;13.426;2022-08-01T07:17:26;59410.25;;;-144.60;100.00
56928;BME280;60850;52.502;13.426;2022-08-01T07:19:53;59410.25;;;-144.60;100.00
56928;BME280;60850;52.502;13.426;2022-08-01T07:22:20;59410.25;;;-144.60;100.00
56928;BME280;60850;52.502;13.426;2022-08-01T07:24:47;59410.25;;;-144.60;100.00
56928;BME280;60850;52.502;13.426;2022-08-01T07:27:14;59410.25;;;-144.60;100.00
56928;BME280;60850;52.502;13.426;2022-08-01T07:29:41;59410.25;;;-144.60;100.00
56928;BME280;60850;52.502;13.426;2022-08-01T07:32:10;59410.25;;;-144.60;100.00
56928;BME280;60850;52.502;13.426;2022-08-01T07:34:36;59410.25;;;-144.60;100.00
56928;BME280;60850;52.502;13.426;2022-08-01T07:37:03;59410.25;;;-144.60;100.00
56928;BME280;60850;52.502;13.426;2022-08-01T07:39:30;59410.25;;;-144.60;100.00
56928;BME280;60850;52.502;13.426;2022-08-01T07:41:57;59410.25;;;-144.60;100.00
56928;BME280;60850;52.502;13.426;2022-08-01T07:44:26;59410.25;;;-144.60;100.00
56928;BME280;60850;52.502;13.426;2022-08-01T07:46:53;59410.25;;;-144.60;100.00
56928;BME280;60850;52.502;13.426;2022-08-01T07:49:21;59410.25;;;-144.60;100.00
56928;BME280;60850;52.502;13.426;2022-08-01T07:51:48;59410.25;;;-144.60;100.00
56928;BME280;60850;52.502;13.426;2022-08-01T07:54:15;59410.25;;;-144.60;100.00
56928;BME280;60850;52.502;13.426;2022-08-01T07:56:42;59410.25;;;-144.60;100.00
56928;BME280;60850;52.502;13.426;2022-08-01T07:59:09;59410.25;;;-144.60;100.00
56928;BME280;60850;52.502;13.426;2022-08-01T08:01:36;59410.25;;;-144.60;100.00
56928;BME280;60850;52.502;13.426;2022-08-01T08:04:03;59410.25;;;-144.60;100.00
56928;BME280;60850;52.502;13.426;2022-08-01T08:06:31;59410.25;;;-144.60;100.00
56928;BME280;60850;52.502;13.426;2022-08-01T08:09:01;59410.25;;;-144.60;100.00
56928;BME280;60850;52.502;13.426;2022-08-01T08:11:28;59410.25;;;-144.60;100.00
56928;BME280;60850;52.502;13.426;2022-08-01T08:13:58;59410.25;;;-144.60;100.00
56928;BME280;60850;52.502;13.426;2022-08-01T08:16:28;59410.25;;;-144.60;100.00
56928;BME280;60850;52.502;13.426;2022-08-01T08:18:54;59410.25;;;-144.60;100.00
56928;BME280;60850;52.502;13.426;2022-08-01T08:21:21;59410.25;;;-144.60;100.00
56928;BME280;60850;52.502;13.426;2022-08-01T08:23:51;59410.25;;;-144.60;100.00
56928;BME280;60850;52.502;13.426;2022-08-01T08:26:35;59410.25;;;-144.60;100.00
56928;BME280;60850;52.502;13.426;2022-08-01T08:29:04;59410.25;;;-144.60;100.00
56928;BME280;60850;52.502;13.426;2022-08-01T08:31:31;59410.25;;;-144.60;100.00
56928;BME280;60850;52.502;13.426;2022-08-01T08:33:59;59410.25;;;-144.60;100.00
56928;BME280;60850;52.502;13.426;2022-08-01T08:36:25;59410.25;;;-144.60;100.00
56928;BME280;60850;52.502;13.426;2022-08-01T08:38:58;59410.25;;;-144.60;100.00
56928;BME280;60850;52.502;13.426;2022-08-01T08:41:26;59410.25;;;-144.60;100.00
56928;BME280;60850;52.502;13.426;2022-08-01T08:43:53;59410.25;;;-144.60;100.00
56928;BME280;60850;52.502;13.426;2022-08-01T08:46:23;59410.25;;;-144.60;100.00
56928;BME280;60850;52.502;13.426;2022-08-01T08:48:52;59410.25;;;-144.60;100.00
56928;BME280;60850;52.502;13.426;2022-08-01T08:51:19;59410.25;;;-144.60;100.00
56928;BME280;60850;52.502;13.426;2022-08-01T08:53:48;59410.25;;;-144.60;100.00
56928;BME280;60850;52.502;13.426;2022-08-01T08:56:16;59410.25;;;-144.60;100.00
56928;BME280;60850;52.502;13.426;2022-08-01T08:58:44;59410.25;;;-144.60;100.00
56928;BME280;60850;52.502;13.426;2022-08-01T09:01:12;59410.25;;;-144.60;100.00
56928;BME280;60850;52.502;13.426;2022-08-01T09:03:40;59410.25;;;-144.60;100.00
56928;BME280;60850;52.502;13.426;2022-08-01T09:06:07;59410.25;;;-144.60;100.00
56928;BME280;60850;52.502;13.426;2022-08-01T09:08:34;59410.25;;;-144.60;100.00
56928;BME280;60850;52.502;13.426;2022-08-01T09:11:10;59410.25;;;-144.60;100.00
56928;BME280;60850;52.502;13.426;2022-08-01T09:13:38;59410.25;;;-144.60;100.00
56928;BME280;60850;52.502;13.426;2022-08-01T09:16:05;59410.25;;;-144.60;100.00
56928;BME280;60850;52.502;13.426;2022-08-01T09:18:33;59410.25;;;-144.60;100.00
56928;BME280;60850;52.502;13.426;2022-08-01T09:21:12;59410.25;;;-144.60;100.00
56928;BME280;60850;52.502;13.426;2022-08-01T09:23:41;59410.25;;;-144.60;100.00
56928;BME280;60850;52.502;13.426;2022-08-01T09:26:10;59410.25;;;-144.60;100.00
56928;BME280;60850;52.502;13.426;2022-08-01T09:28:41;59410.25;;;-144.60;100.00
56928;BME280;60850;52.502;13.426;2022-08-01T09:31:14;59410.25;;;-144.60;100.00
56928;BME280;60850;52.502;13.426;2022-08-01T09:33:51;59410.25;;;-144.60;100.00
56928;BME280;60850;52.502;13.426;2022-08-01T09:36:19;59410.25;;;-144.60;100.00
56928;BME280;60850;52.502;13.426;2022-08-01T09:38:49;59410.25;;;-144.60;100.00
56928;BME280;60850;52.502;13.426;2022-08-01T09:41:16;59410.25;;;-144.60;100.00
56928;BME280;60850;52.502;13.426;2022-08-01T09:43:52;59410.25;;;-144.60;100.00
56928;BME280;60850;52.502;13.426;2022-08-01T09:46:19;59410.25;;;-144.60;100.00
56928;BME280;60850;52.502;13.426;2022-08-01T09:48:57;59410.25;;;-144.60;100.00
56928;BME280;60850;52.502;13.426;2022-08-01T09:51:29;59410.25;;;-144.60;100.00
56928;BME280;60850;52.502;13.426;2022-08-01T09:53:56;59410.25;;;-144.60;100.00
56928;BME280;60850;52.502;13.426;2022-08-01T09:56:23;59410.25;;;-144.60;100.00
56928;BME280;60850;52.502;13.426;2022-08-01T09:58:56;59410.25;;;-144.60;100.00
56928;BME280;60850;52.502;13.426;2022-08-01T10:01:24;59410.25;;;-144.60;100.00
56928;BME280;60850;52.502;13.426;2022-08-01T10:04:05;59410.25;;;-144.60;100.00
56928;BME280;60850;52.502;13.426;2022-08-01T10:06:35;59410.25;;;-144.60;100.00
56928;BME280;60850;52.502;13.426;2022-08-01T10:09:03;59410.25;;;-144.60;100.00
56928;BME280;60850;52.502;13.426;2022-08-01T10:11:33;59410.25;;;-144.60;100.00
56928;BME280;60850;52.502;13.426;2022-08-01T10:14:04;59410.25;;;-144.60;100.00
56928;BME280;60850;52.502;13.426;2022-08-01T10:16:32;59410.25;;;-144.60;100.00
56928;BME280;60850;52.502;13.426;2022-08-01T10:19:00;59410.25;;;-144.60;100.00
56928;BME280;60850;52.502;13.426;2022-08-01T10:21:32;59410.25;;;-144.60;100.00
56928;BME280;60850;52.502;13.426;2022-08-01T10:24:01;59410.25;;;-144.60;100.00
56928;BME280;60850;52.502;13.426;2022-08-01T10:26:29;59410.25;;;-144.60;100.00
56928;BME280;60850;52.502;13.426;2022-08-01T10:28:59;59410.25;;;-144.60;100.00
56928;BME280;60850;52.502;13.426;2022-08-01T10:31:28;59410.25;;;-144.60;100.00
56928;BME280;60850;52.502;13.426;2022-08-01T10:33:58;59410.25;;;-144.60;100.00
56928;BME280;60850;52.502;13.426;2022-08-01T10:36:27;59410.25;;;-144.60;100.00
56928;BME280;60850;52.502;13.426;2022-08-01T10:38:54;59410.25;;;-144.60;100.00
56928;BME280;60850;52.502;13.426;2022-08-01T10:41:22;59410.25;;;-144.60;100.00
56928;BME280;60850;52.502;13.426;2022-08-01T10:43:55;59410.25;;;-144.60;100.00
56928;BME280;60850;52.502;13.426;2022-08-01T10:46:23;59410.25;;;-144.60;100.00
56928;BME280;60850;52.502;13.426;2022-08-01T10:48:58;59410.25;;;-144.60;100.00
56928;BME280;60850;52.502;13.426;2022-08-01T10:51:29;59410.25;;;-144.60;100.00
56928;BME280;60850;52.502;13.426;2022-08-01T10:54:05;59410.25;;;-144.60;100.00
56928;BME280;60850;52.502;13.426;2022-08-01T10:56:39;59410.25;;;-144.60;100.00
56928;BME280;60850;52.502;13.426;2022-08-01T10:59:08;59410.25;;;-144.60;100.00
56928;BME280;60850;52.502;13.426;2022-08-01T11:01:34;59410.25;;;-144.60;100.00
56928;BME280;60850;52.502;13.426;2022-08-01T11:04:10;59410.25;;;-144.60;100.00
56928;BME280;60850;52.502;13.426;2022-08-01T11:07:02;59410.25;;;-144.60;100.00
56928;BME280;60850;52.502;13.426;2022-08-01T11:09:40;59410.25;;;-144.60;100.00
56928;BME280;60850;52.502;13.426;2022-08-01T11:12:10;59410.25;;;-144.60;100.00
56928;BME280;60850;52.502;13.426;2022-08-01T11:17:53;59410.25;;;-144.60;100.00
56928;BME280;60850;52.502;13.426;2022-08-01T11:20:23;59410.25;;;-144.60;100.00
56928;BME280;60850;52.502;13.426;2022-08-01T11:23:27;59410.25;;;-144.60;100.00
56928;BME280;60850;52.502;13.426;2022-08-01T11:26:11;59410.25;;;-144.60;100.00
56928;BME280;60850;52.502;13.426;2022-08-01T11:28:37;59410.25;;;-144.60;100.00
56928;BME280;60850;52.502;13.426;2022-08-01T11:31:24;59410.25;;;-144.60;100.00
56928;BME280;60850;52.502;13.426;2022-08-01T11:33:52;59410.25;;;-144.60;100.00
56928;BME280;60850;52.502;13.426;2022-08-01T11:36:20;59410.25;;;-144.60;100.00
56928;BME280;60850;52.502;13.426;2022-08-01T11:38:49;59410.25;;;-144.60;100.00
56928;BME280;60850;52.502;13.426;2022-08-01T11:41:36;59410.25;;;-144.60;100.00
56928;BME280;60850;52.502;13.426;2022-08-01T11:44:05;59410.25;;;-144.60;100.00
56928;BME280;60850;52.502;13.426;2022-08-01T11:46:52;59410.25;;;-144.60;100.00
56928;BME280;60850;52.502;13.426;2022-08-01T11:49:28;59410.25;;;-144.60;100.00
56928;BME280;60850;52.502;13.426;2022-08-01T11:52:04;59410.25;;;-144.60;100.00
56928;BME280;60850;52.502;13.426;2022-08-01T11:54:33;59410.25;;;-144.60;100.00
56928;BME280;60850;52.502;13.426;2022-08-01T11:57:02;59410.25;;;-144.60;100.00
56928;BME280;60850;52.502;13.426;2022-08-01T11:59:35;59410.25;;;-144.60;100.00
56928;BME280;60850;52.502;13.426;2022-08-01T12:02:03;59410.25;;;-144.60;100.00
56928;BME280;60850;52.502;13.426;2022-08-01T12:04:44;59410.25;;;-144.60;100.00
56928;BME280;60850;52.502;13.426;2022-08-01T12:07:13;59410.25;;;-144.60;100.00
56928;BME280;60850;52.502;13.426;2022-08-01T12:09:40;59410.25;;;-144.60;100.00
56928;BME280;60850;52.502;13.426;2022-08-01T12:12:07;59410.25;;;-144.60;100.00
56928;BME280;60850;52.502;13.426;2022-08-01T12:14:35;59410.25;;;-144.60;100.00
56928;BME280;60850;52.502;13.426;2022-08-01T12:17:02;59410.25;;;-144.60;100.00
56928;BME280;60850;52.502;13.426;2022-08-01T12:19:29;59410.25;;;-144.60;100.00
56928;BME280;60850;52.502;13.426;2022-08-01T12:22:10;59410.25;;;-144.60;100.00
56928;BME280;60850;52.502;13.426;2022-08-01T12:24:39;59410.25;;;-144.60;100.00
56928;BME280;60850;52.502;13.426;2022-08-01T12:27:08;59410.25;;;-144.60;100.00
56928;BME280;60850;52.502;13.426;2022-08-01T12:29:36;59410.25;;;-144.60;100.00
56928;BME280;60850;52.502;13.426;2022-08-01T12:32:04;59410.25;;;-144.60;100.00
56928;BME280;60850;52.502;13.426;2022-08-01T12:34:31;59410.25;;;-144.60;100.00
56928;BME280;60850;52.502;13.426;2022-08-01T12:37:01;59410.25;;;-144.60;100.00
56928;BME280;60850;52.502;13.426;2022-08-01T12:39:32;59410.25;;;-144.60;100.00
56928;BME280;60850;52.502;13.426;2022-08-01T12:42:01;59410.25;;;-144.60;100.00